sensor_id;sensor_type;location;lat;lon;timestamp;pressure;altitude;pressure_sealevel;temperature;humidity
76694;BME280;69667;52.136;5.424;2023-05-18T00:00:02;102957.09;;;6.84;73.62
76694;BME280;69667;52.136;5.424;2023-05-18T00:02:36;102953.66;;;6.79;74.40
76694;BME280;69667;52.136;5.424;2023-05-18T00:05:03;102952.81;;;6.77;73.89
76694;BME280;69667;52.136;5.424;2023-05-18T00:07:30;102956.44;;;6.76;74.44
76694;BME280;69667;52.136;5.424;2023-05-18T00:09:59;102956.44;;;6.76;74.39
76694;BME280;69667;52.136;5.424;2023-05-18T00:12:27;102953.75;;;6.76;74.50
76694;BME280;69667;52.136;5.424;2023-05-18T00:14:53;102953.75;;;6.76;73.77
76694;BME280;69667;52.136;5.424;2023-05-18T00:17:20;102964.53;;;6.73;73.58
76694;BME280;69667;52.136;5.424;2023-05-18T00:19:47;102962.88;;;6.69;74.09
76694;BME280;69667;52.136;5.424;2023-05-18T00:22:15;102953.06;;;6.66;74.71
76694;BME280;69667;52.136;5.424;2023-05-18T00:24:45;102956.81;;;6.61;73.71
76694;BME280;69667;52.136;5.424;2023-05-18T00:27:12;102958.72;;;6.56;74.22
76694;BME280;69667;52.136;5.424;2023-05-18T00:29:39;102957.00;;;6.53;74.97
76694;BME280;69667;52.136;5.424;2023-05-18T00:32:05;102963.38;;;6.49;75.32
76694;BME280;69667;52.136;5.424;2023-05-18T00:34:32;102957.25;;;6.44;74.59
76694;BME280;69667;52.136;5.424;2023-05-18T00:36:59;102957.28;;;6.43;75.46
76694;BME280;69667;52.136;5.424;2023-05-18T00:39:25;102969.91;;;6.37;75.75
76694;BME280;69667;52.136;5.424;2023-05-18T00:41:52;102970.91;;;6.33;75.06
76694;BME280;69667;52.136;5.424;2023-05-18T00:44:18;102966.38;;;6.35;75.11
76694;BME280;69667;52.136;5.424;2023-05-18T00:46:45;102969.16;;;6.32;75.44
76694;BME280;69667;52.136;5.424;2023-05-18T00:49:12;102971.06;;;6.27;75.55
76694;BME280;69667;52.136;5.424;2023-05-18T00:51:39;102965.72;;;6.24;75.25
76694;BME280;69667;52.136;5.424;2023-05-18T00:54:06;102968.38;;;6.26;75.47
76694;BME280;69667;52.136;5.424;2023-05-18T00:56:34;102961.31;;;6.23;75.79
76694;BME280;69667;52.136;5.424;2023-05-18T00:59:01;102969.34;;;6.23;76.28
76694;BME280;69667;52.136;5.424;2023-05-18T01:01:30;102969.50;;;6.17;76.28
76694;BME280;69667;52.136;5.424;2023-05-18T01:03:59;102968.69;;;6.14;76.83
76694;BME280;69667;52.136;5.424;2023-05-18T01:06:30;102968.81;;;6.08;76.66
76694;BME280;69667;52.136;5.424;2023-05-18T01:08:59;102967.19;;;6.01;77.14
76694;BME280;69667;52.136;5.424;2023-05-18T01:11:39;102973.47;;;6.00;77.53
76694;BME280;69667;52.136;5.424;2023-05-18T01:14:19;102969.06;;;5.97;77.98
76694;BME280;69667;52.136;5.424;2023-05-18T01:16:55;102970.00;;;5.95;77.77
76694;BME280;69667;52.136;5.424;2023-05-18T01:22:09;102972.72;;;5.93;77.95
76694;BME280;69667;52.136;5.424;2023-05-18T01:24:44;102971.78;;;5.94;77.25
76694;BME280;69667;52.136;5.424;2023-05-18T01:27:16;102973.50;;;5.98;76.96
76694;BME280;69667;52.136;5.424;2023-05-18T01:29:47;102981.53;;;5.98;77.36
76694;BME280;69667;52.136;5.424;2023-05-18T01:32:21;102967.22;;;5.99;77.23
76694;BME280;69667;52.136;5.424;2023-05-18T01:34:48;102977.06;;;5.99;77.37
76694;BME280;69667;52.136;5.424;2023-05-18T01:37:15;102969.06;;;5.96;77.75
76694;BME280;69667;52.136;5.424;2023-05-18T01:39:42;102978.94;;;5.95;77.37
76694;BME280;69667;52.136;5.424;2023-05-18T01:42:16;102979.94;;;5.90;77.35
76694;BME280;69667;52.136;5.424;2023-05-18T01:44:50;102980.84;;;5.90;77.15
76694;BME280;69667;52.136;5.424;2023-05-18T01:47:18;102969.22;;;5.90;76.66
76694;BME280;69667;52.136;5.424;2023-05-18T01:50:09;102972.84;;;5.89;77.33
76694;BME280;69667;52.136;5.424;2023-05-18T01:52:43;102973.72;;;5.88;77.02
76694;BME280;69667;52.136;5.424;2023-05-18T01:55:13;102978.16;;;5.90;77.27
76694;BME280;69667;52.136;5.424;2023-05-18T01:57:41;102973.72;;;5.88;76.62
76694;BME280;69667;52.136;5.424;2023-05-18T02:00:10;102976.41;;;5.88;77.35
76694;BME280;69667;52.136;5.424;2023-05-18T02:02:44;102973.72;;;5.88;77.46
76694;BME280;69667;52.136;5.424;2023-05-18T02:05:13;102977.38;;;5.85;78.04
76694;BME280;69667;52.136;5.424;2023-05-18T02:07:40;102975.63;;;5.81;78.23
76694;BME280;69667;52.136;5.424;2023-05-18T02:10:09;102977.44;;;5.79;77.92
76694;BME280;69667;52.136;5.424;2023-05-18T02:12:37;102976.63;;;5.77;78.13
76694;BME280;69667;52.136;5.424;2023-05-18T02:15:04;102973.09;;;5.75;77.90
76694;BME280;69667;52.136;5.424;2023-05-18T02:17:34;102967.78;;;5.74;78.14
76694;BME280;69667;52.136;5.424;2023-05-18T02:20:05;102976.75;;;5.71;78.30
76694;BME280;69667;52.136;5.424;2023-05-18T02:22:33;102977.63;;;5.72;78.82
76694;BME280;69667;52.136;5.424;2023-05-18T02:24:59;102976.81;;;5.68;77.96
76694;BME280;69667;52.136;5.424;2023-05-18T02:27:26;102982.13;;;5.70;77.81
76694;BME280;69667;52.136;5.424;2023-05-18T02:29:53;102980.38;;;5.69;77.92
76694;BME280;69667;52.136;5.424;2023-05-18T02:32:20;102976.88;;;5.65;78.10
76694;BME280;69667;52.136;5.424;2023-05-18T02:34:50;102973.34;;;5.63;77.65
76694;BME280;69667;52.136;5.424;2023-05-18T02:37:19;102972.47;;;5.61;77.43
76694;BME280;69667;52.136;5.424;2023-05-18T02:39:48;102978.81;;;5.59;77.08
76694;BME280;69667;52.136;5.424;2023-05-18T02:42:15;102967.22;;;5.57;78.08
76694;BME280;69667;52.136;5.424;2023-05-18T02:44:43;102968.09;;;5.59;77.80
76694;BME280;69667;52.136;5.424;2023-05-18T02:47:12;102968.97;;;5.58;77.75
76694;BME280;69667;52.136;5.424;2023-05-18T02:49:39;102966.41;;;5.53;78.00
76694;BME280;69667;52.136;5.424;2023-05-18T02:52:06;102970.03;;;5.52;77.75
76694;BME280;69667;52.136;5.424;2023-05-18T02:54:32;102972.72;;;5.51;77.87
76694;BME280;69667;52.136;5.424;2023-05-18T02:56:59;102971.84;;;5.50;78.63
76694;BME280;69667;52.136;5.424;2023-05-18T02:59:35;102979.88;;;5.50;78.10
76694;BME280;69667;52.136;5.424;2023-05-18T03:02:03;102971.94;;;5.46;78.71
76694;BME280;69667;52.136;5.424;2023-05-18T03:04:29;102971.13;;;5.42;78.40
76694;BME280;69667;52.136;5.424;2023-05-18T03:06:57;102980.97;;;5.40;78.55
76694;BME280;69667;52.136;5.424;2023-05-18T03:09:24;102981.03;;;5.37;78.87
76694;BME280;69667;52.136;5.424;2023-05-18T03:11:52;102967.66;;;5.37;78.71
76694;BME280;69667;52.136;5.424;2023-05-18T03:14:19;102974.84;;;5.34;78.60
76694;BME280;69667;52.136;5.424;2023-05-18T03:16:45;102978.53;;;5.28;79.28
76694;BME280;69667;52.136;5.424;2023-05-18T03:19:14;102974.13;;;5.26;78.94
76694;BME280;69667;52.136;5.424;2023-05-18T03:21:41;102970.63;;;5.22;79.33
76694;BME280;69667;52.136;5.424;2023-05-18T03:24:09;102973.25;;;5.24;79.81
76694;BME280;69667;52.136;5.424;2023-05-18T03:26:38;102975.06;;;5.23;79.83
76694;BME280;69667;52.136;5.424;2023-05-18T03:29:07;102975.06;;;5.23;79.43
76694;BME280;69667;52.136;5.424;2023-05-18T03:31:33;102984.00;;;5.22;78.91
76694;BME280;69667;52.136;5.424;2023-05-18T03:34:01;102975.06;;;5.23;78.75
76694;BME280;69667;52.136;5.424;2023-05-18T03:36:27;102975.94;;;5.24;78.66
76694;BME280;69667;52.136;5.424;2023-05-18T03:38:54;102972.38;;;5.23;79.61
76694;BME280;69667;52.136;5.424;2023-05-18T03:41:21;102980.44;;;5.22;79.15
76694;BME280;69667;52.136;5.424;2023-05-18T03:43:51;102980.50;;;5.18;79.79
76694;BME280;69667;52.136;5.424;2023-05-18T03:46:17;102979.75;;;5.12;79.59
76694;BME280;69667;52.136;5.424;2023-05-18T03:48:44;102986.88;;;5.11;79.96
76694;BME280;69667;52.136;5.424;2023-05-18T03:51:13;102986.06;;;5.06;80.41
76694;BME280;69667;52.136;5.424;2023-05-18T03:53:40;102984.34;;;5.04;80.19
76694;BME280;69667;52.136;5.424;2023-05-18T03:56:07;102983.44;;;5.05;80.87
76694;BME280;69667;52.136;5.424;2023-05-18T03:58:34;102979.88;;;5.03;80.51
76694;BME280;69667;52.136;5.424;2023-05-18T04:01:01;102980.75;;;5.05;80.61
76694;BME280;69667;52.136;5.424;2023-05-18T04:03:28;102986.94;;;5.08;80.56
76694;BME280;69667;52.136;5.424;2023-05-18T04:05:56;102981.53;;;5.11;80.53
76694;BME280;69667;52.136;5.424;2023-05-18T04:08:22;102979.72;;;5.13;80.86
76694;BME280;69667;52.136;5.424;2023-05-18T04:10:51;102988.63;;;5.12;80.74
76694;BME280;69667;52.136;5.424;2023-05-18T04:13:17;102985.06;;;5.13;80.85
76694;BME280;69667;52.136;5.424;2023-05-18T04:15:44;102998.41;;;5.15;80.95
76694;BME280;69667;52.136;5.424;2023-05-18T04:18:12;102992.16;;;5.14;80.38
76694;BME280;69667;52.136;5.424;2023-05-18T04:20:40;102994.75;;;5.19;80.62
76694;BME280;69667;52.136;5.424;2023-05-18T04:23:07;102996.50;;;5.22;80.51
76694;BME280;69667;52.136;5.424;2023-05-18T04:25:37;102999.00;;;5.29;79.74
76694;BME280;69667;52.136;5.424;2023-05-18T04:28:04;102997.16;;;5.33;79.82
76694;BME280;69667;52.136;5.424;2023-05-18T04:30:32;102995.38;;;5.33;79.47
76694;BME280;69667;52.136;5.424;2023-05-18T04:32:59;102997.13;;;5.34;79.40
76694;BME280;69667;52.136;5.424;2023-05-18T04:35:26;103005.94;;;5.42;79.27
76694;BME280;69667;52.136;5.424;2023-05-18T04:37:53;103003.09;;;5.50;78.51
76694;BME280;69667;52.136;5.424;2023-05-18T04:40:20;103002.88;;;5.60;78.61
76694;BME280;69667;52.136;5.424;2023-05-18T04:42:47;103005.38;;;5.68;79.10
76694;BME280;69667;52.136;5.424;2023-05-18T04:45:23;103001.78;;;5.70;78.15
76694;BME280;69667;52.136;5.424;2023-05-18T04:47:53;103014.13;;;5.77;77.29
76694;BME280;69667;52.136;5.424;2023-05-18T04:50:21;103010.50;;;5.80;78.13
76694;BME280;69667;52.136;5.424;2023-05-18T04:52:49;103016.50;;;5.94;77.05
76694;BME280;69667;52.136;5.424;2023-05-18T04:55:19;103015.31;;;6.07;77.40
76694;BME280;69667;52.136;5.424;2023-05-18T04:57:58;103015.91;;;6.19;76.80
76694;BME280;69667;52.136;5.424;2023-05-18T05:00:27;103017.50;;;6.28;76.07
76694;BME280;69667;52.136;5.424;2023-05-18T05:02:55;103025.31;;;6.38;76.26
76694;BME280;69667;52.136;5.424;2023-05-18T05:05:24;103024.91;;;6.55;76.12
76694;BME280;69667;52.136;5.424;2023-05-18T05:07:52;103027.91;;;6.78;75.55
76694;BME280;69667;52.136;5.424;2023-05-18T05:10:19;103022.16;;;6.93;74.35
76694;BME280;69667;52.136;5.424;2023-05-18T05:12:48;103022.66;;;7.09;73.36
76694;BME280;69667;52.136;5.424;2023-05-18T05:15:15;103021.94;;;7.34;73.18
76694;BME280;69667;52.136;5.424;2023-05-18T05:17:42;103022.31;;;7.53;72.85
76694;BME280;69667;52.136;5.424;2023-05-18T05:20:09;103024.47;;;7.72;72.20
76694;BME280;69667;52.136;5.424;2023-05-18T05:22:36;103021.47;;;7.83;71.83
76694;BME280;69667;52.136;5.424;2023-05-18T05:25:06;103021.16;;;7.94;70.75
76694;BME280;69667;52.136;5.424;2023-05-18T05:27:33;103018.50;;;7.92;70.31
76694;BME280;69667;52.136;5.424;2023-05-18T05:30:00;103022.94;;;7.93;70.61
76694;BME280;69667;52.136;5.424;2023-05-18T05:32:28;103024.41;;;8.05;69.31
76694;BME280;69667;52.136;5.424;2023-05-18T05:34:55;103019.97;;;8.04;69.57
76694;BME280;69667;52.136;5.424;2023-05-18T05:37:22;103029.34;;;8.18;70.00
76694;BME280;69667;52.136;5.424;2023-05-18T05:39:49;103023.88;;;8.23;69.02
76694;BME280;69667;52.136;5.424;2023-05-18T05:42:16;103024.38;;;8.35;69.00
76694;BME280;69667;52.136;5.424;2023-05-18T05:44:43;103019.41;;;8.51;68.66
76694;BME280;69667;52.136;5.424;2023-05-18T05:47:10;103015.34;;;8.91;68.05
76694;BME280;69667;52.136;5.424;2023-05-18T05:49:37;103009.41;;;9.33;66.36
76694;BME280;69667;52.136;5.424;2023-05-18T05:52:05;103008.03;;;9.46;65.95
76694;BME280;69667;52.136;5.424;2023-05-18T05:54:31;103014.38;;;9.92;65.74
76694;BME280;69667;52.136;5.424;2023-05-18T05:56:58;103004.75;;;10.55;63.38
76694;BME280;69667;52.136;5.424;2023-05-18T05:59:25;103009.44;;;10.28;62.53
76694;BME280;69667;52.136;5.424;2023-05-18T06:01:52;103011.38;;;10.00;63.54
76694;BME280;69667;52.136;5.424;2023-05-18T06:04:19;103006.41;;;9.89;63.79
76694;BME280;69667;52.136;5.424;2023-05-18T06:06:47;103008.09;;;9.92;63.09
76694;BME280;69667;52.136;5.424;2023-05-18T06:09:14;103012.88;;;10.08;62.67
76694;BME280;69667;52.136;5.424;2023-05-18T06:11:41;103013.44;;;10.40;61.87
76694;BME280;69667;52.136;5.424;2023-05-18T06:14:08;103005.13;;;11.29;60.20
76694;BME280;69667;52.136;5.424;2023-05-18T06:16:35;103008.25;;;13.09;56.21
76694;BME280;69667;52.136;5.424;2023-05-18T06:19:01;102996.97;;;15.09;50.67
76694;BME280;69667;52.136;5.424;2023-05-18T06:21:29;103000.78;;;16.77;46.53
76694;BME280;69667;52.136;5.424;2023-05-18T06:23:58;103002.91;;;17.77;43.45
76694;BME280;69667;52.136;5.424;2023-05-18T06:26:26;103004.41;;;17.16;41.85
76694;BME280;69667;52.136;5.424;2023-05-18T06:29:31;103018.19;;;16.19;43.60
76694;BME280;69667;52.136;5.424;2023-05-18T06:32:16;103015.47;;;15.91;43.90
76694;BME280;69667;52.136;5.424;2023-05-18T06:34:51;103010.69;;;15.37;44.33
76694;BME280;69667;52.136;5.424;2023-05-18T06:37:18;103018.13;;;15.49;43.79
76694;BME280;69667;52.136;5.424;2023-05-18T06:39:46;103011.09;;;16.17;42.89
76694;BME280;69667;52.136;5.424;2023-05-18T06:42:12;103004.03;;;17.35;41.17
76694;BME280;69667;52.136;5.424;2023-05-18T06:44:49;103000.75;;;18.55;39.15
76694;BME280;69667;52.136;5.424;2023-05-18T06:47:27;103008.63;;;19.54;36.37
76694;BME280;69667;52.136;5.424;2023-05-18T06:49:54;103011.69;;;19.26;35.78
76694;BME280;69667;52.136;5.424;2023-05-18T06:52:21;103007.72;;;19.54;34.67
76694;BME280;69667;52.136;5.424;2023-05-18T06:54:50;103013.59;;;20.17;33.96
76694;BME280;69667;52.136;5.424;2023-05-18T06:57:17;103015.34;;;21.05;32.87
76694;BME280;69667;52.136;5.424;2023-05-18T06:59:45;103011.50;;;20.85;34.01
76694;BME280;69667;52.136;5.424;2023-05-18T07:02:15;103016.31;;;20.50;34.94
76694;BME280;69667;52.136;5.424;2023-05-18T07:04:42;103010.81;;;20.50;32.87
76694;BME280;69667;52.136;5.424;2023-05-18T07:07:08;103014.22;;;20.21;32.70
76694;BME280;69667;52.136;5.424;2023-05-18T07:09:35;103013.78;;;19.92;32.96
76694;BME280;69667;52.136;5.424;2023-05-18T07:12:02;103015.13;;;19.64;34.15
76694;BME280;69667;52.136;5.424;2023-05-18T07:14:29;103018.88;;;19.74;33.60
76694;BME280;69667;52.136;5.424;2023-05-18T07:16:55;103016.66;;;19.45;33.47
76694;BME280;69667;52.136;5.424;2023-05-18T07:19:22;103021.03;;;19.00;33.77
76694;BME280;69667;52.136;5.424;2023-05-18T07:21:48;103023.56;;;18.06;35.56
76694;BME280;69667;52.136;5.424;2023-05-18T07:24:15;103018.78;;;17.32;37.08
76694;BME280;69667;52.136;5.424;2023-05-18T07:26:42;103033.97;;;16.28;39.57
76694;BME280;69667;52.136;5.424;2023-05-18T07:29:08;103032.56;;;15.79;39.99
76694;BME280;69667;52.136;5.424;2023-05-18T07:31:35;103030.94;;;15.77;39.68
76694;BME280;69667;52.136;5.424;2023-05-18T07:34:06;103031.63;;;16.08;40.89
76694;BME280;69667;52.136;5.424;2023-05-18T07:36:33;103040.38;;;15.85;39.93
76694;BME280;69667;52.136;5.424;2023-05-18T07:38:59;103037.38;;;15.01;41.36
76694;BME280;69667;52.136;5.424;2023-05-18T07:41:29;103050.47;;;14.48;42.72
76694;BME280;69667;52.136;5.424;2023-05-18T07:44:01;103038.66;;;13.83;44.13
76694;BME280;69667;52.136;5.424;2023-05-18T07:46:28;103040.09;;;13.56;45.61
76694;BME280;69667;52.136;5.424;2023-05-18T07:48:54;103043.13;;;13.50;46.07
76694;BME280;69667;52.136;5.424;2023-05-18T07:51:21;103038.41;;;13.54;45.68
76694;BME280;69667;52.136;5.424;2023-05-18T07:53:49;103039.38;;;13.53;46.25
76694;BME280;69667;52.136;5.424;2023-05-18T07:56:15;103046.25;;;13.60;46.23
76694;BME280;69667;52.136;5.424;2023-05-18T07:58:43;103054.59;;;13.89;47.10
76694;BME280;69667;52.136;5.424;2023-05-18T08:01:10;103048.06;;;13.76;45.39
76694;BME280;69667;52.136;5.424;2023-05-18T08:03:36;103053.69;;;13.73;45.96
76694;BME280;69667;52.136;5.424;2023-05-18T08:06:11;103051.34;;;13.49;46.69
76694;BME280;69667;52.136;5.424;2023-05-18T08:08:38;103044.47;;;13.59;48.56
76694;BME280;69667;52.136;5.424;2023-05-18T08:11:05;103052.28;;;13.82;46.58
76694;BME280;69667;52.136;5.424;2023-05-18T08:13:31;103055.94;;;13.98;45.56
76694;BME280;69667;52.136;5.424;2023-05-18T08:15:59;103052.06;;;14.02;46.86
76694;BME280;69667;52.136;5.424;2023-05-18T08:18:37;103052.75;;;14.55;44.59
76694;BME280;69667;52.136;5.424;2023-05-18T08:21:04;103051.94;;;14.84;44.08
76694;BME280;69667;52.136;5.424;2023-05-18T08:23:33;103050.72;;;15.35;44.17
76694;BME280;69667;52.136;5.424;2023-05-18T08:26:00;103046.03;;;15.53;44.10
76694;BME280;69667;52.136;5.424;2023-05-18T08:28:29;103051.44;;;15.82;42.20
76694;BME280;69667;52.136;5.424;2023-05-18T08:30:57;103046.59;;;16.43;44.33
76694;BME280;69667;52.136;5.424;2023-05-18T08:33:23;103055.47;;;17.02;39.50
76694;BME280;69667;52.136;5.424;2023-05-18T08:35:51;103051.19;;;16.57;38.69
76694;BME280;69667;52.136;5.424;2023-05-18T08:38:18;103047.59;;;16.00;39.89
76694;BME280;69667;52.136;5.424;2023-05-18T08:40:57;103050.19;;;15.44;41.29
76694;BME280;69667;52.136;5.424;2023-05-18T08:43:25;103048.53;;;15.71;41.42
76694;BME280;69667;52.136;5.424;2023-05-18T08:46:12;103036.56;;;17.25;41.47
76694;BME280;69667;52.136;5.424;2023-05-18T08:48:43;103034.66;;;17.52;38.17
76694;BME280;69667;52.136;5.424;2023-05-18T08:51:16;103035.28;;;17.43;38.00
76694;BME280;69667;52.136;5.424;2023-05-18T08:53:51;103028.16;;;18.05;37.92
76694;BME280;69667;52.136;5.424;2023-05-18T08:56:23;103023.34;;;17.96;38.84
76694;BME280;69667;52.136;5.424;2023-05-18T08:58:53;103022.44;;;17.58;37.48
76694;BME280;69667;52.136;5.424;2023-05-18T09:01:20;103021.69;;;17.29;38.09
76694;BME280;69667;52.136;5.424;2023-05-18T09:03:49;103034.34;;;17.18;38.49
76694;BME280;69667;52.136;5.424;2023-05-18T09:06:16;103025.28;;;16.91;42.15
76694;BME280;69667;52.136;5.424;2023-05-18T09:08:44;103025.03;;;16.81;40.68
76694;BME280;69667;52.136;5.424;2023-05-18T09:11:12;103025.28;;;16.91;40.53
76694;BME280;69667;52.136;5.424;2023-05-18T09:13:39;103015.69;;;16.71;39.75
76694;BME280;69667;52.136;5.424;2023-05-18T09:16:06;103024.22;;;16.24;39.99
76694;BME280;69667;52.136;5.424;2023-05-18T09:18:33;103021.78;;;16.34;40.69
76694;BME280;69667;52.136;5.424;2023-05-18T09:21:00;103014.63;;;16.74;39.46
76694;BME280;69667;52.136;5.424;2023-05-18T09:23:26;103011.63;;;16.91;38.46
76694;BME280;69667;52.136;5.424;2023-05-18T09:25:53;103013.84;;;16.98;39.41
76694;BME280;69667;52.136;5.424;2023-05-18T09:28:32;103002.47;;;17.31;38.46
76694;BME280;69667;52.136;5.424;2023-05-18T09:30:58;102999.50;;;17.48;39.38
76694;BME280;69667;52.136;5.424;2023-05-18T09:33:25;102998.63;;;18.10;37.00
76694;BME280;69667;52.136;5.424;2023-05-18T09:35:58;102994.38;;;18.19;37.18
76694;BME280;69667;52.136;5.424;2023-05-18T09:38:24;102987.22;;;18.41;38.46
76694;BME280;69667;52.136;5.424;2023-05-18T09:40:53;102983.78;;;18.86;37.04
76694;BME280;69667;52.136;5.424;2023-05-18T09:43:23;102992.56;;;18.55;36.49
76694;BME280;69667;52.136;5.424;2023-05-18T09:45:50;102986.00;;;17.84;37.86
76694;BME280;69667;52.136;5.424;2023-05-18T09:48:16;102986.59;;;17.50;37.73
76694;BME280;69667;52.136;5.424;2023-05-18T09:50:44;102992.34;;;16.94;38.94
76694;BME280;69667;52.136;5.424;2023-05-18T09:53:11;102987.09;;;17.42;39.79
76694;BME280;69667;52.136;5.424;2023-05-18T09:55:47;102989.25;;;18.02;38.54
76694;BME280;69667;52.136;5.424;2023-05-18T09:58:15;102994.47;;;18.05;36.62
76694;BME280;69667;52.136;5.424;2023-05-18T10:00:44;102985.50;;;18.03;37.49
76694;BME280;69667;52.136;5.424;2023-05-18T10:03:20;102984.16;;;18.46;37.56
76694;BME280;69667;52.136;5.424;2023-05-18T10:05:47;102975.56;;;18.86;36.09
76694;BME280;69667;52.136;5.424;2023-05-18T10:08:15;102974.63;;;18.75;36.53
76694;BME280;69667;52.136;5.424;2023-05-18T10:10:45;102974.28;;;19.03;37.63
76694;BME280;69667;52.136;5.424;2023-05-18T10:13:16;102971.50;;;18.92;36.48
76694;BME280;69667;52.136;5.424;2023-05-18T10:15:51;102966.53;;;18.73;35.80
76694;BME280;69667;52.136;5.424;2023-05-18T10:18:37;102963.03;;;18.35;38.20
76694;BME280;69667;52.136;5.424;2023-05-18T10:21:05;102965.25;;;18.30;36.44
76694;BME280;69667;52.136;5.424;2023-05-18T10:23:35;102969.28;;;18.25;38.91
76694;BME280;69667;52.136;5.424;2023-05-18T10:26:05;102962.28;;;18.69;36.82
76694;BME280;69667;52.136;5.424;2023-05-18T10:28:38;102964.28;;;18.67;36.83
76694;BME280;69667;52.136;5.424;2023-05-18T10:31:07;102964.03;;;18.70;36.45
76694;BME280;69667;52.136;5.424;2023-05-18T10:33:36;102952.69;;;18.87;37.12
76694;BME280;69667;52.136;5.424;2023-05-18T10:36:04;102959.41;;;18.94;35.00
76694;BME280;69667;52.136;5.424;2023-05-18T10:38:32;102948.50;;;18.47;38.08
76694;BME280;69667;52.136;5.424;2023-05-18T10:40:59;102948.41;;;18.72;37.49
76694;BME280;69667;52.136;5.424;2023-05-18T10:43:27;102952.31;;;19.16;35.57
76694;BME280;69667;52.136;5.424;2023-05-18T10:45:55;102958.25;;;19.10;35.27
76694;BME280;69667;52.136;5.424;2023-05-18T10:48:24;102958.06;;;19.24;35.89
76694;BME280;69667;52.136;5.424;2023-05-18T10:50:52;102949.72;;;19.93;38.24
76694;BME280;69667;52.136;5.424;2023-05-18T10:53:42;102939.47;;;20.50;39.79
76694;BME280;69667;52.136;5.424;2023-05-18T10:56:09;102934.50;;;20.33;33.54
76694;BME280;69667;52.136;5.424;2023-05-18T10:58:37;102939.25;;;19.65;35.29
76694;BME280;69667;52.136;5.424;2023-05-18T11:01:06;102938.34;;;19.42;38.35
76694;BME280;69667;52.136;5.424;2023-05-18T11:03:34;102946.00;;;20.05;33.47
76694;BME280;69667;52.136;5.424;2023-05-18T11:06:07;102938.22;;;19.44;34.63
76694;BME280;69667;52.136;5.424;2023-05-18T11:08:43;102943.97;;;19.63;33.60
76694;BME280;69667;52.136;5.424;2023-05-18T11:11:11;102936.44;;;18.97;35.31
76694;BME280;69667;52.136;5.424;2023-05-18T11:13:43;102930.97;;;19.32;34.99
76694;BME280;69667;52.136;5.424;2023-05-18T11:16:10;102937.84;;;19.03;34.08
76694;BME280;69667;52.136;5.424;2023-05-18T11:21:21;102939.66;;;18.67;38.34
76694;BME280;69667;52.136;5.424;2023-05-18T11:26:52;102930.53;;;19.25;34.03
76694;BME280;69667;52.136;5.424;2023-05-18T11:29:30;102922.88;;;19.41;36.08
76694;BME280;69667;52.136;5.424;2023-05-18T11:31:58;102928.41;;;19.52;35.09
76694;BME280;69667;52.136;5.424;2023-05-18T11:34:44;102917.47;;;19.74;36.13
76694;BME280;69667;52.136;5.424;2023-05-18T11:37:16;102907.50;;;19.62;37.01
76694;BME280;69667;52.136;5.424;2023-05-18T11:39:53;102912.22;;;19.49;34.75
76694;BME280;69667;52.136;5.424;2023-05-18T11:42:33;102905.50;;;19.64;34.49
76694;BME280;69667;52.136;5.424;2023-05-18T11:45:10;102910.41;;;18.91;36.16
76694;BME280;69667;52.136;5.424;2023-05-18T11:47:38;102913.75;;;18.84;35.10
76694;BME280;69667;52.136;5.424;2023-05-18T11:50:08;102906.34;;;18.50;34.22
76694;BME280;69667;52.136;5.424;2023-05-18T11:52:46;102905.09;;;18.30;35.90
76694;BME280;69667;52.136;5.424;2023-05-18T11:55:14;102898.81;;;18.64;36.08
76694;BME280;69667;52.136;5.424;2023-05-18T11:57:42;102902.44;;;19.00;35.12
76694;BME280;69667;52.136;5.424;2023-05-18T12:00:11;102901.47;;;19.01;36.97
76694;BME280;69667;52.136;5.424;2023-05-18T12:02:42;102904.69;;;18.94;38.15
76694;BME280;69667;52.136;5.424;2023-05-18T12:05:10;102883.63;;;18.84;40.89
76694;BME280;69667;52.136;5.424;2023-05-18T12:07:38;102884.53;;;18.96;37.27
76694;BME280;69667;52.136;5.424;2023-05-18T12:10:10;102885.34;;;18.74;36.88
76694;BME280;69667;52.136;5.424;2023-05-18T12:12:37;102890.63;;;19.34;37.05
76694;BME280;69667;52.136;5.424;2023-05-18T12:15:06;102889.75;;;19.33;37.68
76694;BME280;69667;52.136;5.424;2023-05-18T12:17:40;102882.78;;;18.94;36.65
76694;BME280;69667;52.136;5.424;2023-05-18T12:20:09;102884.53;;;19.30;36.76
76694;BME280;69667;52.136;5.424;2023-05-18T12:22:41;102872.56;;;19.31;37.55
76694;BME280;69667;52.136;5.424;2023-05-18T12:25:09;102884.91;;;19.48;37.44
76694;BME280;69667;52.136;5.424;2023-05-18T12:27:37;102863.75;;;19.72;38.96
76694;BME280;69667;52.136;5.424;2023-05-18T12:30:08;102862.47;;;19.98;36.37
76694;BME280;69667;52.136;5.424;2023-05-18T12:32:37;102861.75;;;19.85;41.55
76694;BME280;69667;52.136;5.424;2023-05-18T12:35:04;102854.25;;;20.20;35.37
76694;BME280;69667;52.136;5.424;2023-05-18T12:37:43;102867.50;;;19.49;36.56
76694;BME280;69667;52.136;5.424;2023-05-18T12:40:13;102858.91;;;18.97;37.42
76694;BME280;69667;52.136;5.424;2023-05-18T12:45:18;102857.63;;;18.89;37.16
76694;BME280;69667;52.136;5.424;2023-05-18T12:47:45;102864.47;;;19.30;38.25
76694;BME280;69667;52.136;5.424;2023-05-18T12:50:12;102857.78;;;19.67;38.34
76694;BME280;69667;52.136;5.424;2023-05-18T12:52:42;102850.81;;;19.52;38.37
76694;BME280;69667;52.136;5.424;2023-05-18T12:55:16;102854.31;;;19.76;38.21
76694;BME280;69667;52.136;5.424;2023-05-18T12:57:43;102855.69;;;19.59;36.23
76694;BME280;69667;52.136;5.424;2023-05-18T13:00:11;102846.53;;;19.26;37.20
76694;BME280;69667;52.136;5.424;2023-05-18T13:02:38;102850.06;;;19.39;38.52
76694;BME280;69667;52.136;5.424;2023-05-18T13:05:10;102849.56;;;19.45;37.59
76694;BME280;69667;52.136;5.424;2023-05-18T13:07:42;102846.81;;;19.34;36.30
76694;BME280;69667;52.136;5.424;2023-05-18T13:10:10;102853.88;;;19.25;37.06
76694;BME280;69667;52.136;5.424;2023-05-18T13:12:48;102850.75;;;19.19;37.18
76694;BME280;69667;52.136;5.424;2023-05-18T13:15:16;102842.94;;;19.36;40.44